Mc Clellan-Palomar Airport Carlsbad US
ICAO: KCRQ
IATA: CRQ
Category: Medium
Scheduled Services: No

Elevation: 331 ft
TransAlt. 18000 ft.

Airport Communications:
SOCAL APP/DEP:127.3
ATIS:120.15
CLNC DEL:134.85
CTAF:118.6
GND:121.8
SAN DIEGO RDO:115.3
TWR:118.6

KCRQ Zoom In..

Runways:

(A) RW 06 length 4897 ft width 150 ft
---- / hdg 65

(B) RW 24 length 4897 ft width 150 ft
ILS 108.70 / hdg 245

Location; KCRQ
Day. 24 / Time. 01.53 Zulu
* Altimeter: 30.11
* Temperature: 17° c. 62.6°f.
* Wind from: 000° Speed 00 kn.
Dewpoint: -02° c.
Visibility: 10 Statute Miles.
Clouds: Clear (automated report).

KCRQ 240153Z AUTO 00000KT 10SM CLR 17/M02 A3011 RMK AO2 SLP193 T01721017


Wind - Calm.

YouTube Music Video
 
jpsmedia.com for Web Design  worldairports.se 2018   terms of use